Terminal Aerodrome Forecast
Issued by NWS

Home | Current Version | Previous Version | Text Only | Print | Product List | Glossary On
Versions: 1 2 3 4 5 6 7 8 9 10 11 12 13 14 15 16 17 18 19 20
000
FTUS41 KPBZ 160500 CCA
TAFAGC
TAF COR
KAGC 160548Z 1606/1706 20007KT P6SM OVC100
     FM160800 34004KT P6SM BKN015
     FM161600 33005KT P6SM BKN050
     FM162200 32007KT P6SM SKC=

USA.gov is the U.S. government's official web portal to all federal, state and local government web resources and services.